Latest Weather Observations for Wilsons Promontory

IDV60801

Issued at 9:22 pm EST Wednesday 5 August 2020 (issued every 10 minutes, with the page automatically refreshed every 10 minutes)

About weather observations | Map of weather stations | Latest weather observations for VIC | Other Formats
Station Details ID: 085096 Name: WILSONS PROMONTORY LIGHTHOUSE Lat: -39.13 Lon: 146.42 Height: 95.0 m
Data from the previous 72 hours. | See also: Recent months at Wilsons Promontory
Date/Time
EST
Temp
°C
App
Temp
°C
Dew
Point
°C
Rel
Hum
%
Delta-T
°C
Wind Press
QNH
hPa
Press
MSL
hPa
Rain since
9am
mm
Dir  Spd
km/h
Gust
km/h
Spd
kts
Gust
kts
05/09:00pm 9.3 -5.3 4.3 71 2.2 WSW 70 85 38 46 1012.7 1012.8 0.0
05/08:48pm 9.2 -7.0 3.4 67 2.5 WSW 78 83 42 45 1012.5 - 0.0
05/08:30pm 9.4 -2.7 4.2 70 2.3 WSW 57 82 31 44 1012.4 - 0.0
05/08:10pm 9.4 -3.2 3.8 68 2.5 WSW 59 78 32 42 1012.8 - 0.0
05/08:00pm 9.4 -3.7 3.2 65 2.7 WSW 61 78 33 42 1012.4 - 0.0
05/07:30pm 9.4 -3.2 3.4 66 2.6 WSW 59 82 32 44 1012.4 - 0.0
05/07:26pm 9.4 -3.2 3.8 68 2.5 WSW 59 78 32 42 1012.5 - 0.0
05/07:00pm 9.5 -5.6 3.7 67 2.5 WSW 72 83 39 45 1011.5 - 0.0
05/06:47pm 9.4 -5.1 3.4 66 2.6 WSW 69 87 37 47 1011.3 - 0.0
05/06:30pm 9.5 -4.9 4.3 70 2.3 WSW 69 83 37 45 1011.6 - 0.0
05/06:00pm 9.5 -7.1 3.3 65 2.7 WSW 80 93 43 50 1010.5 1010.6 0.0
05/05:36pm 9.7 -5.6 4.5 70 2.3 WSW 74 93 40 50 1011.0 - 0.0
05/05:30pm 9.6 -6.5 4.0 68 2.5 WSW 78 93 42 50 1010.9 - 0.0
05/05:00pm 9.8 -4.8 4.0 67 2.6 WSW 70 89 38 48 1010.6 - 0.0
05/04:59pm 9.8 -4.8 4.0 67 2.6 WSW 70 89 38 48 1010.7 - 0.0
05/04:43pm 9.7 -7.0 3.2 64 2.8 WSW 80 87 43 47 1010.6 - 0.0
05/04:30pm 9.8 -1.8 3.8 66 2.6 WSW 54 76 29 41 1011.0 - 0.0
05/04:02pm 9.8 -3.3 4.8 71 2.3 WSW 63 82 34 44 1010.8 - 0.0
05/04:00pm 9.7 -4.3 4.3 69 2.4 WSW 67 83 36 45 1010.5 - 0.0
05/03:56pm 9.6 -5.4 4.0 68 2.5 WSW 72 91 39 49 1010.5 - 0.0
05/03:50pm 9.7 -6.8 3.9 67 2.6 WSW 80 91 43 49 1009.9 - 0.0
05/03:35pm 9.8 -2.3 4.2 68 2.5 WSW 57 83 31 45 1010.1 - 0.0
05/03:30pm 9.7 -2.4 4.1 68 2.5 WSW 57 72 31 39 1010.1 - 0.0
05/03:09pm 9.6 -4.2 3.4 65 2.7 WSW 65 83 35 45 1010.2 - 0.0
05/03:00pm 9.6 -4.2 3.1 64 2.8 WSW 65 82 35 44 1010.0 1010.1 0.0
05/02:55pm 9.6 -2.6 3.6 66 2.6 WSW 57 76 31 41 1010.1 - 0.0
05/02:30pm 9.5 -3.9 3.5 66 2.6 WSW 63 78 34 42 1010.0 - 0.0
05/02:15pm 9.4 -4.0 3.6 67 2.5 WSW 63 82 34 44 1010.0 - 0.0
05/02:00pm 9.4 -5.4 3.2 65 2.7 WSW 70 82 38 44 1010.1 - 0.0
05/01:30pm 9.6 -4.1 4.0 68 2.5 WSW 65 78 35 42 1010.6 - 0.0
05/01:00pm 9.3 -4.8 3.5 67 2.5 WSW 67 80 36 43 1010.8 - 0.0
05/12:30pm 9.2 -4.8 4.0 70 2.3 SW 67 76 36 41 1011.0 - 0.0
05/12:00pm 9.4 -4.6 4.0 69 2.4 WSW 67 76 36 41 1011.4 1011.5 0.0
05/11:30am 9.7 -3.8 4.9 72 2.2 SW 65 80 35 43 1011.5 - 0.0
05/11:00am 9.6 -5.7 4.6 71 2.2 SW 74 83 40 45 1010.6 - 0.0
05/10:58am 9.6 -5.7 4.6 71 2.2 SW 74 83 40 45 1010.6 - 0.0
05/10:55am 9.6 -1.9 4.6 71 2.2 SW 54 89 29 48 1010.8 - 0.0
05/10:30am 9.6 -6.0 4.6 71 2.2 WSW 76 87 41 47 1010.4 - 0.0
05/10:12am 9.6 -6.0 4.6 71 2.2 SW 76 83 41 45 1010.3 - 0.0
05/10:06am 9.6 -2.2 4.6 71 2.2 SW 56 89 30 48 1010.4 - 0.0
05/10:00am 9.4 -6.3 4.2 70 2.3 SW 76 89 41 48 1010.0 - 0.0
05/09:30am 9.4 -7.1 4.2 70 2.3 SW 80 91 43 49 1009.1 - 0.0
05/09:00am 9.5 -5.4 4.3 70 2.3 SW 72 91 39 49 1009.3 1009.4 17.2
05/08:30am 9.4 -5.3 3.4 66 2.6 SW 70 89 38 48 1008.7 - 17.2
05/08:13am 9.4 -5.1 3.8 68 2.5 SW 69 87 37 47 1008.8 - 17.2
05/08:11am 9.4 -6.0 3.8 68 2.5 SW 74 87 40 47 1008.7 - 17.2
05/08:00am 9.4 -1.8 3.8 68 2.5 SW 52 83 28 45 1008.4 - 17.2
05/07:42am 9.5 -3.4 4.1 69 2.4 SW 61 80 33 43 1008.5 - 17.2
05/07:38am 9.3 -4.9 3.3 66 2.6 SW 67 87 36 47 1008.3 - 17.2
05/07:35am 9.5 -0.1 4.3 70 2.3 SSW 44 87 24 47 1008.4 - 17.2
05/07:30am 9.2 -6.7 3.2 66 2.6 SW 76 89 41 48 1008.0 - 17.2
05/07:28am 9.3 -5.4 3.5 67 2.5 SW 70 89 38 48 1007.9 - 17.2
05/07:25am 9.4 -0.1 3.8 68 2.5 SW 43 89 23 48 1007.9 - 17.2
05/07:19am 9.4 -5.6 3.8 68 2.5 SW 72 93 39 50 1007.6 - 17.2
05/07:10am 9.4 -7.6 3.6 67 2.5 SW 82 89 44 48 1007.6 - 17.2
05/07:00am 9.4 -2.2 4.0 69 2.4 SW 54 82 29 44 1007.9 - 17.2
05/06:46am 9.4 -0.2 3.6 67 2.5 SSW 43 93 23 50 1007.2 - 17.2
05/06:45am 9.5 -5.9 3.9 68 2.5 SW 74 93 40 50 1007.3 - 17.2
05/06:41am 9.4 -7.1 4.2 70 2.3 SW 80 91 43 49 1007.2 - 17.2
05/06:38am 9.6 -1.5 4.4 70 2.3 SW 52 91 28 49 1007.4 - 17.2
05/06:37am 9.5 -1.3 4.1 69 2.4 SW 50 91 27 49 1007.1 - 17.2
05/06:30am 9.4 -6.8 3.8 68 2.5 SW 78 98 42 53 1006.8 - 17.2
05/06:18am 9.5 -5.6 3.7 67 2.5 SW 72 91 39 49 1006.7 - 17.2
05/06:15am 9.5 -6.7 3.9 68 2.5 SW 78 91 42 49 1006.8 - 17.2
05/06:11am 9.7 1.0 4.3 69 2.4 SW 39 80 21 43 1007.1 - 17.2
05/06:02am 9.7 2.2 4.3 69 2.4 WSW 33 95 18 51 1006.7 - 17.2
05/06:00am 9.6 -1.2 4.0 68 2.5 SW 50 95 27 51 1006.3 1006.3 17.2
05/05:54am 9.6 -0.8 4.2 69 2.4 SW 48 78 26 42 1006.5 - 17.2
05/05:53am 9.5 0.4 4.1 69 2.4 WNW 41 78 22 42 1006.4 - 17.2
05/05:50am 9.6 2.7 4.4 70 2.3 N 30 87 16 47 1006.5 - 17.2
05/05:30am 9.5 -1.7 3.9 68 2.5 SW 52 87 28 47 1005.5 - 17.2
05/05:16am 9.7 -0.2 4.7 71 2.2 SW 46 83 25 45 1005.6 - 17.2
05/05:14am 9.8 2.3 4.6 70 2.3 N 33 93 18 50 1005.6 - 17.2
05/05:09am 9.5 -1.3 4.1 69 2.4 SW 50 93 27 50 1004.8 - 17.2
05/05:08am 9.6 -0.1 4.0 68 2.5 W 44 96 24 52 1004.6 - 17.2
05/05:00am 9.6 -5.7 4.2 69 2.4 SW 74 102 40 55 1004.6 - 17.2
05/04:40am 9.7 -5.9 4.7 71 2.2 SW 76 102 41 55 1004.7 - 17.2
05/04:39am 9.6 -6.5 4.4 70 2.3 SW 78 102 42 55 1004.6 - 17.2
05/04:37am 9.7 -2.2 4.5 70 2.3 SW 56 102 30 55 1004.4 - 17.2
05/04:35am 9.6 -7.2 4.4 70 2.3 SW 82 102 44 55 1004.5 - 17.2
05/04:30am 9.6 -7.8 4.2 69 2.4 SW 85 109 46 59 1004.2 - 17.2
05/04:27am 9.7 -2.1 4.9 72 2.2 SW 56 109 30 59 1004.7 - 17.2
05/04:20am 9.6 -8.6 4.2 69 2.4 SW 89 109 48 59 1004.0 - 17.2
05/04:17am 9.6 -9.3 4.2 69 2.4 SW 93 109 50 59 1003.9 - 17.2
05/04:12am 9.5 -3.3 4.3 70 2.3 SW 61 120 33 65 1003.4 - 17.2
05/04:05am 9.6 -10.3 4.4 70 2.3 SW 98 120 53 65 1003.6 - 17.2
05/04:00am 9.5 -6.2 4.3 70 2.3 SW 76 117 41 63 1003.5 - 17.2
05/03:59am 9.6 -4.0 4.6 71 2.2 SW 65 117 35 63 1003.6 - 17.2
05/03:30am 9.4 -9.8 4.8 73 2.1 SW 95 113 51 61 1003.7 - 17.2
05/03:27am 9.3 -10.0 4.3 71 2.2 SW 95 113 51 61 1003.4 - 17.2
05/03:25am 9.3 -10.0 4.3 71 2.2 SW 95 111 51 60 1003.3 - 17.2
05/03:20am 9.4 -4.9 4.8 73 2.1 SW 69 109 37 59 1003.8 - 17.2
05/03:17am 9.2 -9.3 4.4 72 2.1 SW 91 109 49 59 1003.5 - 17.2
05/03:12am 9.3 -10.0 4.5 72 2.1 SW 95 107 51 58 1003.8 - 17.2
05/03:06am 9.4 -6.2 4.8 73 2.1 SW 76 107 41 58 1004.1 - 17.2
05/03:02am 9.3 -11.3 4.5 72 2.1 SW 102 107 55 58 1003.5 - 17.2
05/03:00am 9.3 -6.7 4.7 73 2.1 SW 78 104 42 56 1003.8 - 17.2
05/02:30am 9.3 -6.7 4.7 73 2.1 SW 78 102 42 55 1003.9 - 17.2
05/02:20am 9.4 -6.2 4.8 73 2.1 SW 76 95 41 51 1004.6 - 17.2
05/02:17am 9.3 -8.5 4.3 71 2.2 SW 87 95 47 51 1004.4 - 17.2
05/02:00am 9.2 -1.3 3.6 68 2.4 SW 48 95 26 51 1004.3 - 17.2
05/01:59am 9.3 -0.8 3.7 68 2.4 SW 46 95 25 51 1004.5 - 17.2
05/01:53am 9.3 -5.1 4.1 70 2.3 SW 69 91 37 49 1004.8 - 17.2
05/01:50am 9.3 0.1 3.7 68 2.4 WSW 41 95 22 51 1004.7 - 17.2
05/01:42am 9.4 -4.5 4.6 72 2.1 SW 67 95 36 51 1004.5 - 17.2
05/01:41am 9.4 -0.2 4.2 70 2.3 SSW 44 95 24 51 1004.4 - 17.2
05/01:33am 9.4 1.5 4.2 70 2.3 W 35 98 19 53 1004.7 - 17.2
05/01:30am 9.2 -5.9 3.4 67 2.5 SW 72 98 39 53 1004.2 - 17.2
05/01:25am 9.3 -6.5 3.7 68 2.4 SW 76 96 41 52 1003.8 - 17.2
05/01:03am 9.3 -1.3 4.9 74 2.0 SSW 50 100 27 54 1004.2 - 17.2
05/01:00am 9.2 -6.7 5.0 75 1.9 SW 78 100 42 54 1004.1 - 17.2
05/12:30am 8.8 -6.4 4.8 76 1.8 SW 74 95 40 51 1004.3 - 17.2
05/12:10am 8.6 -8.4 4.6 76 1.8 SW 83 102 45 55 1004.2 - 17.2
05/12:00am 8.5 -10.3 4.9 78 1.6 SW 93 102 50 55 1003.8 1003.9 17.2
 
Date/Time
EST
Temp
°C
App
Temp
°C
Dew
Point
°C
Rel
Hum
%
Delta-T
°C
Wind Press
QNH
hPa
Press
MSL
hPa
Rain since
9am
mm
Dir  Spd
km/h
Gust
km/h
Spd
kts
Gust
kts
04/11:58pm 8.5 -3.3 4.9 78 1.6 SW 56 102 30 55 1004.0 - 17.2
04/11:47pm 8.3 -9.3 5.2 81 1.4 SW 87 98 47 53 1004.3 - 17.2
04/11:41pm 8.2 -5.1 5.7 84 1.1 SW 65 95 35 51 1003.8 - 17.2
04/11:37pm 7.2 -2.2 5.2 87 0.9 W 44 89 24 48 1006.0 - 17.2
04/11:30pm 5.9 -3.8 3.7 86 0.9 W 44 65 24 35 1006.4 - 17.2
04/11:00pm 5.3 -4.2 1.6 77 1.5 W 41 61 22 33 1007.0 - 15.6
04/10:30pm 6.8 -5.6 1.5 69 2.1 WSW 56 87 30 47 1007.4 - 14.0
04/10:27pm 6.9 -5.5 1.4 68 2.2 WSW 56 98 30 53 1007.2 - 14.0
04/10:21pm 6.7 -10.3 1.2 68 2.2 WSW 80 98 43 53 1007.0 - 13.8
04/10:16pm 7.8 -9.0 2.3 68 2.3 SW 80 93 43 50 1006.4 - 13.8
04/10:03pm 8.2 -4.8 1.1 61 2.9 WSW 59 78 32 42 1007.1 - 13.8
04/10:00pm 8.3 -5.5 1.2 61 2.9 WSW 63 80 34 43 1007.1 - 13.8
04/09:59pm 8.3 -5.1 1.0 60 3.0 WSW 61 80 33 43 1007.1 - 13.8
04/09:49pm 8.3 -7.6 0.8 59 3.0 WSW 74 80 40 43 1007.3 - 13.8
04/09:32pm 8.3 -3.4 0.8 59 3.0 WSW 52 70 28 38 1008.1 - 13.8
04/09:30pm 8.2 -4.0 0.0 56 3.2 WSW 54 70 29 38 1008.0 - 13.8
04/09:18pm 8.2 -2.0 0.7 59 3.0 WSW 44 65 24 35 1008.3 - 13.8
04/09:00pm 8.1 -3.3 0.3 58 3.1 WSW 50 65 27 35 1008.4 1008.5 13.8
04/08:40pm 7.9 -3.2 0.2 58 3.1 WSW 48 67 26 36 1008.5 - 13.8
04/08:30pm 7.9 -3.9 0.6 60 2.9 WSW 52 65 28 35 1008.4 - 13.8
04/08:15pm 7.7 -2.4 0.2 59 3.0 WSW 43 61 23 33 1008.7 - 13.8
04/08:00pm 7.6 -2.5 0.1 59 3.0 WSW 43 54 23 29 1008.8 - 13.8
04/07:42pm 7.6 -2.1 0.8 62 2.7 WSW 41 59 22 32 1008.6 - 13.8
04/07:30pm 7.5 -3.6 0.3 60 2.9 WSW 48 57 26 31 1008.4 - 13.8
04/07:00pm 7.3 -3.7 0.5 62 2.7 SW 48 59 26 32 1008.4 - 13.8
04/06:30pm 7.1 -5.1 0.5 63 2.6 SW 54 65 29 35 1008.3 - 13.8
04/06:00pm 7.0 -4.3 1.1 66 2.4 WSW 50 65 27 35 1008.0 1008.1 13.8
04/05:46pm 6.9 -5.5 1.2 67 2.3 WSW 56 61 30 33 1007.8 - 13.8
04/05:31pm 6.4 -0.7 1.5 71 2.0 WSW 28 50 15 27 1007.9 - 13.8
04/05:30pm 6.4 -0.3 1.7 72 1.9 WSW 26 50 14 27 1007.9 - 13.8
04/05:23pm 6.3 -1.4 2.2 75 1.7 WSW 32 50 17 27 1008.2 - 13.8
04/05:10pm 6.7 -1.9 2.8 76 1.6 W 37 63 20 34 1007.9 - 13.8
04/05:03pm 6.6 -5.7 3.0 78 1.5 SW 57 63 31 34 1007.5 - 13.8
04/05:00pm 6.6 -2.2 3.6 81 1.3 WSW 39 59 21 32 1007.7 - 13.8
04/04:50pm 6.1 -0.6 3.9 86 0.9 W 28 52 15 28 1007.9 - 13.8
04/04:30pm 4.4 -2.9 2.3 86 0.8 W 30 69 16 37 1008.0 - 13.8
04/04:25pm 4.5 -7.0 2.4 86 0.8 WSW 52 70 28 38 1007.8 - 13.6
04/04:20pm 5.1 -7.3 2.8 85 0.9 WSW 57 70 31 38 1007.3 - 13.4
04/04:14pm 5.4 -1.7 3.3 86 0.9 W 30 48 16 26 1007.6 - 13.2
04/04:00pm 4.9 -2.7 2.9 87 0.8 W 32 41 17 22 1007.6 - 13.2
04/03:38pm 4.6 -2.7 2.5 86 0.9 W 30 48 16 26 1007.3 - 13.2
04/03:30pm 4.4 -3.3 2.3 86 0.8 W 32 41 17 22 1007.3 - 13.2
04/03:00pm 5.1 -1.0 3.0 86 0.9 W 24 33 13 18 1007.3 1007.3 13.0
04/02:30pm 4.8 -3.4 2.7 86 0.9 W 35 48 19 26 1006.9 - 12.8
04/02:00pm 3.9 -3.5 2.1 88 0.7 WNW 30 48 16 26 1006.9 - 12.8
04/01:31pm 3.7 -5.1 1.4 85 0.9 W 37 57 20 31 1006.8 - 12.4
04/01:30pm 3.9 -4.5 1.6 85 0.9 W 35 52 19 28 1006.9 - 12.4
04/01:00pm 5.5 -0.8 3.7 88 0.8 W 26 35 14 19 1006.9 - 11.4
04/12:30pm 4.1 -2.8 2.6 90 0.6 W 28 44 15 24 1007.5 - 11.4
04/12:03pm 3.4 -4.0 1.8 89 0.6 W 30 52 16 28 1007.4 - 10.8
04/12:00pm 4.1 -2.4 2.5 89 0.6 WNW 26 41 14 22 1007.5 1007.6 10.2
04/11:30am 3.1 -3.6 1.5 89 0.6 WNW 26 33 14 18 1007.8 - 10.0
04/11:00am 3.6 -2.3 2.0 89 0.6 W 22 35 12 19 1008.1 - 8.4
04/10:30am 3.1 -4.8 1.2 87 0.7 WSW 32 43 17 23 1008.1 - 5.6
04/10:00am 3.7 -2.3 1.1 83 1.0 NNW 22 37 12 20 1008.3 - 1.4
04/09:30am 4.8 0.7 2.0 82 1.1 NW 13 33 7 18 1008.2 - 0.2
04/09:01am 5.6 -2.7 2.4 80 1.3 W 35 54 19 29 1007.8 - 0.0
04/09:00am 5.4 -3.3 2.2 80 1.3 W 37 54 20 29 1007.9 1008.0 9.6
04/08:47am 5.5 -3.3 1.6 76 1.6 W 37 59 20 32 1007.7 - 9.6
04/08:30am 5.5 -2.5 0.5 70 1.9 WNW 32 52 17 28 1008.1 - 9.6
04/08:15am 5.8 -1.8 0.8 70 2.0 W 30 48 16 26 1007.8 - 9.6
04/08:00am 5.8 -1.6 1.7 75 1.7 W 30 46 16 25 1007.9 - 9.6
04/07:34am 5.9 -1.5 1.6 74 1.7 WNW 30 48 16 26 1007.5 - 9.2
04/07:30am 5.8 -2.0 1.5 74 1.7 WNW 32 43 17 23 1007.5 - 9.2
04/07:00am 5.5 -2.9 1.6 76 1.6 WNW 35 50 19 27 1007.8 - 9.2
04/06:44am 5.6 -1.3 2.3 79 1.3 WNW 28 46 15 25 1007.8 - 9.2
04/06:30am 5.3 0.1 2.5 82 1.1 WNW 19 30 10 16 1008.1 - 9.2
04/06:00am 4.7 -3.7 1.7 81 1.2 W 35 54 19 29 1008.2 1008.3 9.0
04/05:30am 6.0 -2.4 1.5 73 1.8 W 35 56 19 30 1007.8 - 7.8
04/05:00am 6.1 -2.2 2.4 77 1.5 W 35 54 19 29 1007.9 - 7.8
04/04:39am 5.5 -3.1 2.5 81 1.2 W 37 56 20 30 1008.2 - 7.8
04/04:30am 5.3 -4.4 2.8 84 1.0 W 43 74 23 40 1008.0 - 7.8
04/04:25am 5.4 -3.1 2.9 84 1.0 W 37 89 20 48 1008.0 - 7.6
04/04:16am 5.6 -8.7 2.8 82 1.2 SW 67 89 36 48 1006.9 - 7.2
04/04:10am 6.3 -6.8 3.1 80 1.3 SW 61 67 33 36 1007.3 - 7.2
04/04:00am 6.1 -3.6 2.9 80 1.3 W 43 61 23 33 1007.9 - 7.2
04/03:50am 5.9 -3.0 3.2 83 1.1 W 39 59 21 32 1007.8 - 7.2
04/03:46am 5.8 -3.1 3.1 83 1.1 WSW 39 57 21 31 1007.9 - 7.2
04/03:30am 5.8 -7.1 4.0 88 0.8 WSW 61 80 33 43 1007.5 - 7.2
04/03:04am 5.3 -8.1 3.5 88 0.8 WSW 63 85 34 46 1006.9 - 6.6
04/03:00am 5.7 -7.2 3.9 88 0.8 WSW 61 72 33 39 1007.7 1007.8 6.6
04/02:39am 5.5 -9.2 3.5 87 0.8 SW 70 82 38 44 1006.9 - 6.0
04/02:32am 5.6 -3.3 3.3 85 1.0 SW 39 72 21 39 1006.9 - 6.0
04/02:30am 5.9 -1.6 3.6 85 1.0 WNW 32 72 17 39 1006.8 - 6.0
04/02:29am 5.9 -1.6 3.6 85 1.0 NNW 32 72 17 39 1006.6 - 6.0
04/02:25am 6.1 -2.8 3.3 82 1.2 W 39 72 21 39 1006.6 - 6.0
04/02:22am 6.4 -1.1 3.4 81 1.3 ESE 32 59 17 32 1006.5 - 6.0
04/02:20am 6.8 -2.4 3.6 80 1.4 WSW 41 65 22 35 1007.2 - 6.0
04/02:16am 7.3 -4.0 3.4 76 1.7 SW 52 65 28 35 1007.5 - 6.0
04/02:00am 8.9 1.3 3.7 70 2.3 W 33 52 18 28 1007.7 - 6.0
04/01:30am 8.9 0.5 3.5 69 2.3 W 37 61 20 33 1007.5 - 6.0
04/01:00am 9.2 -0.4 4.4 72 2.1 W 44 65 24 35 1007.7 - 6.0
04/12:30am 8.7 1.7 5.8 82 1.3 W 32 52 17 28 1008.5 - 6.0
04/12:09am 8.8 1.7 6.2 84 1.2 W 33 56 18 30 1008.5 - 6.0
04/12:00am 8.8 3.4 6.2 84 1.2 W 24 46 13 25 1008.6 1008.7 6.0
 
Date/Time
EST
Temp
°C
App
Temp
°C
Dew
Point
°C
Rel
Hum
%
Delta-T
°C
Wind Press
QNH
hPa
Press
MSL
hPa
Rain since
9am
mm
Dir  Spd
km/h
Gust
km/h
Spd
kts
Gust
kts
03/11:30pm 8.9 3.1 6.3 84 1.2 W 26 46 14 25 1008.7 - 6.0
03/11:05pm 9.0 2.0 6.1 82 1.3 WNW 32 50 17 27 1008.9 - 6.0
03/11:00pm 9.2 2.6 6.1 81 1.4 W 30 46 16 25 1009.2 - 6.0
03/10:30pm 9.2 4.0 5.4 77 1.7 NW 22 41 12 22 1009.5 - 6.0
03/10:08pm 9.6 3.1 4.6 71 2.2 W 28 50 15 27 1009.4 - 6.0
03/10:00pm 9.5 4.1 4.7 72 2.2 W 22 41 12 22 1009.5 - 6.0
03/09:39pm 9.6 3.3 5.6 76 1.8 W 28 46 15 25 1009.6 - 6.0
03/09:30pm 9.6 3.4 6.1 79 1.6 W 28 43 15 23 1009.6 - 6.0
03/09:00pm 9.3 4.8 6.2 81 1.4 WNW 19 44 10 24 1010.3 1010.4 6.0
03/08:30pm 9.1 5.0 6.0 81 1.4 W 17 39 9 21 1010.5 - 6.0
03/08:00pm 8.8 2.9 5.7 81 1.4 WNW 26 41 14 22 1010.8 - 6.0
03/07:30pm 9.4 2.7 5.6 77 1.7 W 30 48 16 26 1010.8 - 5.6
03/07:29pm 9.5 3.2 5.7 77 1.7 W 28 48 15 26 1010.7 - 5.6
03/07:00pm 9.2 2.9 5.8 79 1.6 W 28 44 15 24 1011.1 - 5.6
03/06:31pm 9.2 2.8 7.0 86 1.0 W 30 48 16 26 1010.8 - 5.6
03/06:30pm 9.1 2.3 6.9 86 1.0 W 32 48 17 26 1010.8 - 5.6
03/06:00pm 9.0 2.1 7.3 89 0.8 W 33 50 18 27 1010.8 1010.9 5.6
03/05:51pm 9.0 2.3 7.3 89 0.8 W 32 50 17 27 1010.7 - 5.6
03/05:30pm 8.9 1.6 7.4 90 0.7 W 35 50 19 27 1010.6 - 5.4
03/05:00pm 9.0 2.2 7.5 90 0.7 W 33 54 18 29 1010.7 - 4.8
03/04:49pm 9.0 2.3 7.5 90 0.7 W 32 56 17 30 1010.7 - 4.4
03/04:30pm 8.7 1.4 7.2 90 0.7 W 35 48 19 26 1010.7 - 4.0
03/04:00pm 8.9 1.6 7.2 89 0.8 W 35 54 19 29 1010.8 - 2.8
03/03:30pm 9.7 2.4 7.0 83 1.3 W 35 67 19 36 1010.7 - 0.4
03/03:00pm 11.0 3.7 7.3 78 1.8 W 35 67 19 36 1010.5 1010.6 0.0
03/02:30pm 10.8 3.6 7.5 80 1.6 W 35 54 19 29 1011.2 - 0.0
03/02:00pm 11.0 3.7 7.1 77 1.9 W 35 59 19 32 1011.1 - 0.0
03/01:30pm 10.8 2.8 7.5 80 1.6 W 39 72 21 39 1011.4 - 0.0
03/01:00pm 9.9 2.2 7.2 83 1.3 W 37 63 20 34 1011.9 - 0.0
03/12:30pm 11.2 3.0 6.7 74 2.1 W 39 61 21 33 1012.2 - 0.0
03/12:00pm 11.4 3.1 6.1 70 2.5 W 39 63 21 34 1012.3 1012.4 0.0
03/11:30am 11.4 3.6 6.5 72 2.3 W 37 63 20 34 1012.8 - 0.0
03/11:00am 11.6 4.6 6.7 72 2.3 W 33 57 18 31 1013.5 - 0.0
03/10:30am 11.7 3.4 6.2 69 2.6 W 39 63 21 34 1013.4 - 0.0
03/10:00am 11.7 2.8 7.0 73 2.3 W 43 69 23 37 1013.4 - 0.0
03/09:39am 11.4 4.6 7.9 79 1.7 W 33 69 18 37 1013.3 - 0.0
03/09:30am 11.2 4.4 7.7 79 1.7 W 33 50 18 27 1013.8 - 0.0
03/09:00am 11.5 2.3 6.2 70 2.5 W 44 72 24 39 1013.5 1013.6 1.0
03/08:30am 11.2 1.1 5.9 70 2.5 W 48 72 26 39 1013.7 - 1.0
03/08:00am 11.0 2.5 8.6 85 1.2 W 43 61 23 33 1013.9 - 1.0
03/07:30am 10.8 3.6 9.1 89 0.8 W 37 56 20 30 1014.1 - 1.0
03/07:02am 10.7 4.8 9.1 90 0.8 W 30 48 16 26 1014.1 - 1.0
03/07:00am 10.6 4.3 9.0 90 0.8 W 32 46 17 25 1014.3 - 1.0
03/06:30am 10.5 4.9 8.6 88 0.9 W 28 46 15 25 1014.1 - 1.0
03/06:24am 10.5 4.8 8.4 87 1.0 WNW 28 46 15 25 1014.3 - 1.0
03/06:00am 10.9 6.0 8.5 85 1.2 W 24 39 13 21 1014.2 1014.3 0.0
03/05:34am 10.8 5.0 7.9 82 1.4 W 28 46 15 25 1014.3 - 0.0
03/05:30am 10.9 6.3 8.0 82 1.4 W 22 46 12 25 1014.3 - 0.0
03/05:00am 10.9 8.3 7.8 81 1.5 WNW 11 37 6 20 1014.6 - 0.0
03/04:30am 10.8 8.5 7.3 79 1.7 WNW 9 19 5 10 1014.8 - 0.0
03/04:00am 10.9 6.7 7.4 79 1.7 WNW 19 30 10 16 1015.1 - 0.0
03/03:30am 10.8 7.3 7.1 78 1.8 NW 15 22 8 12 1015.5 - 0.0
03/03:00am 10.9 8.2 7.2 78 1.8 NNW 11 20 6 11 1015.8 1015.9 0.0
03/02:30am 10.9 7.8 7.2 78 1.8 N 13 20 7 11 1016.3 - 0.0
03/02:00am 11.0 8.3 7.3 78 1.8 NNW 11 20 6 11 1016.7 - 0.0
03/01:30am 11.2 8.2 7.5 78 1.8 NW 13 24 7 13 1017.2 - 0.0
03/01:00am 11.2 8.2 7.5 78 1.8 NNW 13 24 7 13 1017.5 - 0.0
03/12:30am 11.1 8.0 7.4 78 1.8 NW 13 22 7 12 1018.1 - 0.0
03/12:00am 11.3 7.2 7.8 79 1.7 NW 19 22 10 12 1018.5 1018.6 0.0
 
Date/Time
EST
Temp
°C
App
Temp
°C
Dew
Point
°C
Rel
Hum
%
Delta-T
°C
Wind Press
QNH
hPa
Press
MSL
hPa
Rain since
9am
mm
Dir  Spd
km/h
Gust
km/h
Spd
kts
Gust
kts
02/11:30pm 11.3 8.0 8.0 80 1.6 NW 15 20 8 11 1018.8 - 0.0
02/11:00pm 11.3 8.0 8.0 80 1.6 NW 15 20 8 11 1019.1 - 0.0
02/10:30pm 11.3 7.9 7.8 79 1.7 NW 15 20 8 11 1019.3 - 0.0
02/10:00pm 11.5 7.3 8.2 80 1.6 NW 20 28 11 15 1019.6 - 0.0
02/09:30pm 11.4 7.1 7.9 79 1.7 WNW 20 26 11 14 1020.0 - 0.0

Other formats

Comma delimited format used in spreadsheet applications
http://www.bom.gov.au/fwo/IDV60801/IDV60801.94893.axf

JavaScript Object Notation format (JSON) in row-major order
http://www.bom.gov.au/fwo/IDV60801/IDV60801.94893.json

Data quality

Most of these data are generated automatically and are frequently updated. Quality checks on data are not normally performed. It is possible for incorrect values to appear. Refer to information at About Latest Weather Observations and please check the disclaimer before using these data.